Time;durP1;ratioP1;P1;durP2;ratioP2;P2;SDS_P1;SDS_P2;PMS_P1;PMS_P2;Temp;Humidity;BMP_temperature;BMP_pressure;BME280_temperature;BME280_humidity;BME280_pressure;Samples;Min_cycle;Max_cycle;Signal;HPM_P1;HPM_P2
2021/12/30 00:01:38;;;;;;;27.73;5.13;;;9.30;99.90;;;;;;5040731;28;20080;-70
2021/12/30 00:04:04;;;;;;;20.17;6.00;;;9.30;99.90;;;;;;5037124;28;20046;-72
2021/12/30 00:06:37;;;;;;;30.50;6.43;;;9.20;99.90;;;;;;5039618;28;20042;-71
2021/12/30 00:09:03;;;;;;;29.50;5.80;;;9.20;99.90;;;;;;5038450;28;20045;-72
2021/12/30 00:11:29;;;;;;;23.70;5.88;;;9.20;99.90;;;;;;5039409;28;20061;-71
2021/12/30 00:13:56;;;;;;;24.60;5.70;;;9.20;99.90;;;;;;5038435;28;20448;-71
2021/12/30 00:16:22;;;;;;;26.98;5.03;;;9.20;99.90;;;;;;5037778;28;20038;-71
2021/12/30 00:18:49;;;;;;;28.63;5.25;;;9.20;99.90;;;;;;5040006;28;20137;-70
2021/12/30 00:21:15;;;;;;;23.27;5.03;;;9.10;99.90;;;;;;5037159;28;20515;-70
2021/12/30 00:23:42;;;;;;;22.10;5.03;;;9.10;99.90;;;;;;5039000;28;20120;-71
2021/12/30 00:26:08;;;;;;;20.58;5.88;;;9.10;99.90;;;;;;5038234;28;20489;-71
2021/12/30 00:28:35;;;;;;;23.50;4.82;;;9.10;99.90;;;;;;5040185;28;20052;-71
2021/12/30 00:31:01;;;;;;;21.10;5.22;;;9.00;99.90;;;;;;5038958;28;20060;-71
2021/12/30 00:33:32;;;;;;;21.63;5.07;;;9.00;99.90;;;;;;5037038;28;20084;-70
2021/12/30 00:35:58;;;;;;;27.00;6.15;;;9.00;99.90;;;;;;5038869;28;20076;-71
2021/12/30 00:38:24;;;;;;;25.77;5.65;;;9.00;99.90;;;;;;5037891;28;20105;-71
2021/12/30 00:40:50;;;;;;;23.90;5.35;;;8.90;99.90;;;;;;5040590;28;20065;-71
2021/12/30 00:43:17;;;;;;;26.60;6.15;;;8.90;99.90;;;;;;5053429;28;20541;-71
2021/12/30 00:45:43;;;;;;;24.00;5.30;;;8.90;99.90;;;;;;5038619;28;20095;-71
2021/12/30 00:48:09;;;;;;;20.48;5.47;;;8.90;99.90;;;;;;5039035;28;20053;-71
2021/12/30 00:50:36;;;;;;;32.60;5.60;;;8.80;99.90;;;;;;5037427;28;20056;-71
2021/12/30 00:53:06;;;;;;;28.15;6.18;;;8.90;99.90;;;;;;5038462;28;20077;-71
2021/12/30 00:55:32;;;;;;;19.60;4.80;;;8.80;99.90;;;;;;5037734;28;20045;-71
2021/12/30 00:57:58;;;;;;;26.17;5.22;;;8.70;99.90;;;;;;5038454;28;20064;-71
2021/12/30 01:00:24;;;;;;;21.25;5.05;;;8.80;99.90;;;;;;5036491;28;20049;-71
2021/12/30 01:02:50;;;;;;;17.60;5.28;;;8.70;99.90;;;;;;5037823;28;20037;-71
2021/12/30 01:05:16;;;;;;;32.45;5.70;;;8.70;99.90;;;;;;5037149;28;20073;-72
2021/12/30 01:07:42;;;;;;;23.90;4.40;;;8.70;99.90;;;;;;5037817;28;20041;-70
2021/12/30 01:10:11;;;;;;;22.63;4.78;;;8.70;99.90;;;;;;5021711;28;20045;-71
2021/12/30 01:12:37;;;;;;;21.20;5.13;;;8.70;99.90;;;;;;5037607;28;20049;-71
2021/12/30 01:15:09;;;;;;;27.15;6.22;;;8.60;99.90;;;;;;5055007;28;20071;-71
2021/12/30 01:20:11;;;;;;;22.98;4.68;;;8.50;99.90;;;;;;5039272;28;20049;-72
2021/12/30 01:22:37;;;;;;;20.95;5.20;;;8.40;99.90;;;;;;5038659;28;20048;-71
2021/12/30 01:25:07;;;;;;;24.50;4.68;;;8.40;99.90;;;;;;5037919;28;20105;-71
2021/12/30 01:27:36;;;;;;;24.02;4.68;;;8.40;99.90;;;;;;5071126;28;20073;-71
2021/12/30 01:30:04;;;;;;;26.15;5.75;;;8.30;99.90;;;;;;5035598;28;20052;-71
2021/12/30 01:32:29;;;;;;;22.95;5.15;;;8.30;99.90;;;;;;5039496;28;20481;-71
2021/12/30 01:34:55;;;;;;;24.27;5.03;;;8.20;99.90;;;;;;5036370;28;20136;-71
2021/12/30 01:37:23;;;;;;;23.73;5.60;;;8.20;99.90;;;;;;5054011;28;20064;-71
2021/12/30 01:39:49;;;;;;;24.33;4.70;;;8.20;99.90;;;;;;5038500;28;20056;-71
2021/12/30 01:42:15;;;;;;;21.98;4.70;;;8.20;99.90;;;;;;5035995;28;20044;-72
2021/12/30 01:44:41;;;;;;;23.08;4.60;;;8.10;99.90;;;;;;5037235;28;20049;-70
2021/12/30 01:47:07;;;;;;;27.08;4.78;;;8.20;99.90;;;;;;5035039;28;20053;-71
2021/12/30 01:49:33;;;;;;;29.85;6.03;;;8.10;99.90;;;;;;5037806;28;20045;-71
2021/12/30 01:51:59;;;;;;;33.25;6.50;;;8.20;99.90;;;;;;5036881;28;20057;-71
2021/12/30 01:54:26;;;;;;;24.08;5.10;;;8.20;99.90;;;;;;5038596;28;20041;-71
2021/12/30 01:56:53;;;;;;;25.20;5.65;;;8.20;99.90;;;;;;5038304;28;20048;-71
2021/12/30 01:59:22;;;;;;;31.08;6.05;;;8.30;99.90;;;;;;5037172;28;20046;-71
2021/12/30 02:01:53;;;;;;;28.58;6.15;;;8.30;99.90;;;;;;5070652;28;20038;-72
2021/12/30 02:04:18;;;;;;;27.55;5.85;;;8.30;99.90;;;;;;5036012;28;20049;-71
2021/12/30 02:06:44;;;;;;;21.15;6.18;;;8.40;99.90;;;;;;5037612;28;20101;-70
2021/12/30 02:09:10;;;;;;;27.90;5.28;;;8.30;99.90;;;;;;5036737;28;20069;-71
2021/12/30 02:11:36;;;;;;;28.45;8.00;;;8.40;99.90;;;;;;5036846;28;20045;-71
2021/12/30 02:14:02;;;;;;;19.25;5.70;;;8.40;99.90;;;;;;5037551;28;20123;-70
2021/12/30 02:16:28;;;;;;;25.67;5.13;;;8.40;99.90;;;;;;5069320;28;20139;-71
2021/12/30 02:18:54;;;;;;;34.45;5.68;;;8.40;99.90;;;;;;5038224;28;20064;-71
2021/12/30 02:21:19;;;;;;;26.45;6.15;;;8.40;99.90;;;;;;5051467;28;20053;-70
2021/12/30 02:23:45;;;;;;;32.88;7.45;;;8.50;99.90;;;;;;5036877;28;20081;-71
2021/12/30 02:26:14;;;;;;;28.95;8.38;;;8.50;99.90;;;;;;5036555;28;20132;-71
2021/12/30 02:28:41;;;;;;;30.02;7.57;;;8.50;99.90;;;;;;5070294;28;20091;-71
2021/12/30 02:31:10;;;;;;;29.60;7.50;;;8.50;99.90;;;;;;5052626;28;20071;-71
2021/12/30 02:33:37;;;;;;;36.30;10.45;;;8.60;99.90;;;;;;5036104;28;20061;-71
2021/12/30 02:36:04;;;;;;;27.95;7.75;;;8.60;99.90;;;;;;5038447;28;20049;-70
2021/12/30 02:38:30;;;;;;;26.38;6.40;;;8.70;99.90;;;;;;5034706;28;20049;-71
2021/12/30 02:40:57;;;;;;;30.58;9.15;;;8.80;99.90;;;;;;5038691;28;20051;-71
2021/12/30 02:43:26;;;;;;;28.35;7.45;;;8.80;99.90;;;;;;5036381;28;20064;-71
2021/12/30 02:45:54;;;;;;;28.10;8.48;;;8.80;99.90;;;;;;5037895;28;20053;-71
2021/12/30 02:48:26;;;;;;;27.40;8.30;;;8.80;99.90;;;;;;5036488;28;20049;-71
2021/12/30 02:50:54;;;;;;;35.30;8.65;;;8.80;99.90;;;;;;5035419;28;20045;-71
2021/12/30 02:53:20;;;;;;;40.45;9.05;;;8.80;99.90;;;;;;5036933;28;20510;-71
2021/12/30 02:55:47;;;;;;;35.35;9.35;;;8.90;99.90;;;;;;5034968;28;20037;-71
2021/12/30 02:58:14;;;;;;;44.97;9.75;;;8.90;99.90;;;;;;5053856;28;20057;-71
2021/12/30 03:00:41;;;;;;;35.25;10.98;;;9.00;99.90;;;;;;5036020;28;20037;-71
2021/12/30 03:03:07;;;;;;;39.92;12.02;;;9.00;99.90;;;;;;5069065;28;20520;-72
2021/12/30 03:05:33;;;;;;;35.63;11.30;;;9.10;99.90;;;;;;5036388;28;20045;-71
2021/12/30 03:07:59;;;;;;;36.78;10.18;;;9.10;99.90;;;;;;5068635;28;20508;-72
2021/12/30 03:10:27;;;;;;;39.80;11.00;;;9.20;99.90;;;;;;5036733;28;20104;-72
2021/12/30 03:12:57;;;;;;;37.17;11.75;;;9.20;99.90;;;;;;5067782;28;20056;-72
2021/12/30 03:15:24;;;;;;;37.53;10.80;;;9.20;99.90;;;;;;5038727;28;20049;-71
2021/12/30 03:17:50;;;;;;;41.55;11.85;;;9.30;99.90;;;;;;5036281;28;20077;-71
2021/12/30 03:20:16;;;;;;;35.42;12.30;;;9.30;99.90;;;;;;5069186;28;20477;-72
2021/12/30 03:22:44;;;;;;;44.40;11.95;;;9.30;99.90;;;;;;5069474;28;20045;-71
2021/12/30 03:25:13;;;;;;;42.80;13.88;;;9.40;99.90;;;;;;5068940;28;20038;-72
2021/12/30 03:27:39;;;;;;;43.35;11.88;;;9.50;99.90;;;;;;5041283;28;20083;-71
2021/12/30 03:30:08;;;;;;;40.53;13.35;;;9.40;99.90;;;;;;5039427;28;20045;-72
2021/12/30 03:32:34;;;;;;;43.90;12.98;;;9.50;99.90;;;;;;5024605;28;20151;-72
2021/12/30 03:35:00;;;;;;;32.72;11.52;;;9.50;99.90;;;;;;5070937;28;20449;-71
2021/12/30 03:37:26;;;;;;;36.78;12.27;;;9.60;99.90;;;;;;5038992;28;20077;-71
2021/12/30 03:39:51;;;;;;;41.28;12.70;;;9.60;99.90;;;;;;5039064;28;20053;-71
2021/12/30 03:42:17;;;;;;;36.17;12.13;;;9.60;99.90;;;;;;5038199;28;20054;-71
2021/12/30 03:44:44;;;;;;;41.00;12.50;;;9.60;99.90;;;;;;5039858;28;20076;-71
2021/12/30 03:47:15;;;;;;;34.60;10.93;;;9.70;99.90;;;;;;5070848;28;20053;-72
2021/12/30 03:49:45;;;;;;;36.78;11.48;;;9.70;99.90;;;;;;5040284;28;20059;-71
2021/12/30 03:52:15;;;;;;;33.28;12.25;;;9.70;99.90;;;;;;5039944;28;20112;-71
2021/12/30 03:54:42;;;;;;;43.47;11.90;;;9.70;99.90;;;;;;5038845;28;20045;-71
2021/12/30 03:57:09;;;;;;;42.97;11.77;;;9.70;99.90;;;;;;5022848;28;20116;-71
2021/12/30 03:59:34;;;;;;;37.63;12.20;;;9.70;99.90;;;;;;5037668;28;20053;-72
2021/12/30 04:02:00;;;;;;;39.55;12.57;;;9.80;99.90;;;;;;5039326;28;20054;-70
2021/12/30 04:04:26;;;;;;;37.92;12.32;;;9.80;99.90;;;;;;5038090;28;20065;-72
2021/12/30 04:06:52;;;;;;;36.13;12.07;;;9.90;99.90;;;;;;5040008;28;20334;-71
2021/12/30 04:09:18;;;;;;;32.47;11.05;;;9.90;99.90;;;;;;5039625;28;20529;-71
2021/12/30 04:11:44;;;;;;;31.88;9.75;;;9.90;99.90;;;;;;5040204;28;20048;-72
2021/12/30 04:14:10;;;;;;;37.33;10.77;;;9.90;99.90;;;;;;5039133;28;20056;-71
2021/12/30 04:16:36;;;;;;;44.42;12.00;;;10.00;99.90;;;;;;5036981;28;20111;-71
2021/12/30 04:19:02;;;;;;;37.63;11.43;;;10.10;99.90;;;;;;5038989;28;20080;-72
2021/12/30 04:21:28;;;;;;;32.47;10.52;;;10.00;99.90;;;;;;5070274;28;20042;-72
2021/12/30 04:23:54;;;;;;;34.20;11.07;;;10.00;99.90;;;;;;5040975;28;20044;-71
2021/12/30 04:26:20;;;;;;;32.78;10.88;;;10.10;99.90;;;;;;5038942;28;20042;-71
2021/12/30 04:28:46;;;;;;;38.83;12.32;;;10.10;99.90;;;;;;5040046;28;20053;-71
2021/12/30 04:31:12;;;;;;;34.60;10.98;;;10.10;99.90;;;;;;5039528;28;20493;-71
2021/12/30 04:33:38;;;;;;;33.20;11.82;;;10.10;99.90;;;;;;5036070;28;20060;-70
2021/12/30 04:36:04;;;;;;;32.53;10.45;;;10.10;99.90;;;;;;5039419;28;20417;-70
2021/12/30 04:38:31;;;;;;;41.15;11.13;;;10.10;99.90;;;;;;5068990;28;20067;-70
2021/12/30 04:40:58;;;;;;;35.28;10.38;;;10.10;99.90;;;;;;5040335;28;20109;-71
2021/12/30 04:43:24;;;;;;;39.78;10.45;;;10.10;99.90;;;;;;5070206;28;20166;-71
2021/12/30 04:45:50;;;;;;;35.35;12.32;;;10.10;99.90;;;;;;5039575;28;20038;-71
2021/12/30 04:48:16;;;;;;;41.78;11.07;;;10.10;99.90;;;;;;5039598;28;20053;-71
2021/12/30 04:50:45;;;;;;;33.03;11.02;;;10.10;99.90;;;;;;5036896;28;20101;-71
2021/12/30 04:53:14;;;;;;;33.15;10.82;;;10.10;99.90;;;;;;5039785;28;20075;-72
2021/12/30 04:55:40;;;;;;;39.83;13.23;;;10.10;99.90;;;;;;5037528;28;20049;-71
2021/12/30 04:58:06;;;;;;;40.78;12.50;;;10.10;99.90;;;;;;5040183;28;20076;-72
2021/12/30 05:00:32;;;;;;;38.00;10.70;;;10.10;99.90;;;;;;5036338;28;20045;-71
2021/12/30 05:03:09;;;;;;;31.90;9.80;;;10.10;99.90;;;;;;5037995;28;20877;-72
2021/12/30 05:05:47;;;;;;;39.60;12.07;;;10.10;99.90;;;;;;5038174;28;20153;-71
2021/12/30 05:08:14;;;;;;;39.22;11.85;;;10.10;99.90;;;;;;5019713;28;20057;-71
2021/12/30 05:10:41;;;;;;;40.65;13.02;;;10.20;99.90;;;;;;5038702;28;20049;-71
2021/12/30 05:13:08;;;;;;;40.35;11.88;;;10.10;99.90;;;;;;5037611;28;20045;-71
2021/12/30 05:15:35;;;;;;;41.22;11.23;;;10.10;99.90;;;;;;5039609;28;20038;-70
2021/12/30 05:18:02;;;;;;;38.78;13.18;;;10.10;99.90;;;;;;5070292;28;20068;-71
2021/12/30 05:20:28;;;;;;;44.42;12.27;;;10.10;99.90;;;;;;5038423;28;20057;-71
2021/12/30 05:22:54;;;;;;;44.47;13.95;;;10.10;99.90;;;;;;5039326;28;20037;-71
2021/12/30 05:25:20;;;;;;;35.17;13.10;;;10.10;99.90;;;;;;5036001;28;20049;-71
2021/12/30 05:27:47;;;;;;;42.95;15.38;;;10.20;99.90;;;;;;5071340;28;20073;-70
2021/12/30 05:30:14;;;;;;;41.17;14.23;;;10.20;99.90;;;;;;5035679;28;20045;-70
2021/12/30 05:32:40;;;;;;;40.55;13.10;;;10.20;99.90;;;;;;5070952;28;20064;-70
2021/12/30 05:35:08;;;;;;;36.22;13.90;;;10.10;99.90;;;;;;5037107;28;20416;-70
2021/12/30 05:37:33;;;;;;;37.38;12.93;;;10.20;99.90;;;;;;5036807;28;20057;-70
2021/12/30 05:39:59;;;;;;;35.78;13.20;;;10.20;99.90;;;;;;5038765;28;20052;-70
2021/12/30 05:42:25;;;;;;;35.08;12.30;;;10.20;99.90;;;;;;5037122;28;20049;-70
2021/12/30 05:44:53;;;;;;;31.15;12.43;;;10.20;99.90;;;;;;5038096;28;20790;-70
2021/12/30 05:47:19;;;;;;;33.25;10.98;;;10.20;99.90;;;;;;5036358;28;20060;-69
2021/12/30 05:49:45;;;;;;;34.80;11.73;;;10.20;99.90;;;;;;5037911;28;20049;-70
2021/12/30 05:52:12;;;;;;;28.58;10.82;;;10.20;99.90;;;;;;5037515;28;20049;-70
2021/12/30 05:54:39;;;;;;;32.47;10.43;;;10.30;99.90;;;;;;5038078;28;20072;-70
2021/12/30 05:57:04;;;;;;;25.40;9.52;;;10.30;99.90;;;;;;5038646;28;20045;-70
2021/12/30 05:59:30;;;;;;;33.25;10.13;;;10.30;99.90;;;;;;5036725;28;20056;-70
2021/12/30 06:01:56;;;;;;;28.02;10.18;;;10.30;99.90;;;;;;5039046;28;20076;-70
2021/12/30 06:04:21;;;;;;;24.17;9.15;;;10.40;99.90;;;;;;5036251;28;20045;-69
2021/12/30 06:06:47;;;;;;;24.45;8.82;;;10.40;99.90;;;;;;5038977;28;20057;-70
2021/12/30 06:09:14;;;;;;;22.73;9.45;;;10.40;99.90;;;;;;5035907;28;20109;-70
2021/12/30 06:11:39;;;;;;;27.30;8.57;;;10.50;99.90;;;;;;5037422;28;20056;-71
2021/12/30 06:14:05;;;;;;;30.05;9.73;;;10.50;99.90;;;;;;5038303;28;20041;-70
2021/12/30 06:16:33;;;;;;;29.63;11.20;;;10.50;99.90;;;;;;5036799;28;20050;-70
2021/12/30 06:18:59;;;;;;;29.83;10.02;;;10.60;99.90;;;;;;5038507;28;20061;-71
2021/12/30 06:21:26;;;;;;;33.78;11.15;;;10.60;99.90;;;;;;5068350;28;20053;-70
2021/12/30 06:23:52;;;;;;;32.03;10.43;;;10.70;99.90;;;;;;5038967;28;20057;-70
2021/12/30 06:26:18;;;;;;;38.25;11.82;;;10.70;99.90;;;;;;5035570;28;20561;-70
2021/12/30 06:28:43;;;;;;;38.45;13.85;;;10.70;99.90;;;;;;5037851;28;20109;-70
2021/12/30 06:31:09;;;;;;;44.38;13.52;;;10.80;99.90;;;;;;5036902;28;20042;-69
2021/12/30 06:33:35;;;;;;;38.60;12.75;;;10.80;99.90;;;;;;5034770;28;20552;-69
2021/12/30 06:36:01;;;;;;;46.10;13.85;;;10.90;99.90;;;;;;5038406;28;20138;-70
2021/12/30 06:38:26;;;;;;;47.08;15.52;;;10.90;99.90;;;;;;5036305;28;20065;-70
2021/12/30 06:40:52;;;;;;;46.67;14.88;;;10.90;99.90;;;;;;5038606;28;20726;-70
2021/12/30 06:43:18;;;;;;;47.25;14.00;;;10.90;99.90;;;;;;5036475;28;20080;-69
2021/12/30 06:45:44;;;;;;;43.63;13.88;;;11.00;99.90;;;;;;5038181;28;20037;-69
2021/12/30 06:48:14;;;;;;;41.20;13.63;;;11.00;99.90;;;;;;5037342;28;20041;-69
2021/12/30 06:50:51;;;;;;;36.58;13.25;;;11.00;99.90;;;;;;5068654;28;20053;-69
2021/12/30 06:53:19;;;;;;;47.20;14.52;;;11.00;99.90;;;;;;5038514;28;20104;-70
2021/12/30 06:55:46;;;;;;;51.55;14.35;;;11.10;99.90;;;;;;5036151;28;20096;-70
2021/12/30 06:58:12;;;;;;;43.97;14.57;;;11.10;99.90;;;;;;5038376;28;20061;-70
2021/12/30 07:00:37;;;;;;;49.25;15.57;;;11.10;99.90;;;;;;5040271;28;20045;-70
2021/12/30 07:03:03;;;;;;;41.75;14.60;;;11.10;99.90;;;;;;5040750;28;20046;-70
2021/12/30 07:05:29;;;;;;;40.95;12.88;;;11.10;99.90;;;;;;5041733;28;20045;-70
2021/12/30 07:07:54;;;;;;;40.47;13.18;;;11.10;99.90;;;;;;5038898;28;20052;-69
2021/12/30 07:10:20;;;;;;;39.58;13.13;;;11.10;99.90;;;;;;5041949;28;20493;-70
2021/12/30 07:12:46;;;;;;;35.35;11.95;;;11.20;99.90;;;;;;5071885;28;20046;-70
2021/12/30 07:15:11;;;;;;;37.65;11.88;;;11.20;99.90;;;;;;5042013;28;20056;-69
2021/12/30 07:17:37;;;;;;;39.65;12.32;;;11.20;99.90;;;;;;5040090;28;20033;-69
2021/12/30 07:20:05;;;;;;;33.03;11.43;;;11.20;99.90;;;;;;5041184;28;20056;-68
2021/12/30 07:22:30;;;;;;;36.80;11.98;;;11.30;99.90;;;;;;5041255;28;20056;-69
2021/12/30 07:24:56;;;;;;;30.73;10.45;;;11.30;99.90;;;;;;5039828;28;20046;-69
2021/12/30 07:27:23;;;;;;;25.25;9.90;;;11.30;99.90;;;;;;5039968;28;20041;-68
2021/12/30 07:29:48;;;;;;;28.48;10.68;;;11.30;99.90;;;;;;5071399;28;20046;-69
2021/12/30 07:32:14;;;;;;;29.92;9.98;;;11.30;99.90;;;;;;5041598;28;20120;-69
2021/12/30 07:34:40;;;;;;;30.30;10.35;;;11.30;99.90;;;;;;5039003;28;20057;-68
2021/12/30 07:37:05;;;;;;;28.00;10.30;;;11.40;99.90;;;;;;5041595;28;20041;-70
2021/12/30 07:39:31;;;;;;;24.63;9.93;;;11.40;99.90;;;;;;5072733;28;20057;-68
2021/12/30 07:41:57;;;;;;;27.10;9.90;;;11.40;99.90;;;;;;5021979;28;20516;-69
2021/12/30 07:44:23;;;;;;;25.63;8.27;;;11.40;99.90;;;;;;5041230;28;20042;-68
2021/12/30 07:46:48;;;;;;;22.48;7.90;;;11.40;99.90;;;;;;5037696;28;20059;-68
2021/12/30 07:49:14;;;;;;;22.30;8.00;;;11.40;99.90;;;;;;5041587;28;20046;-68
2021/12/30 07:51:40;;;;;;;21.45;8.40;;;11.50;99.90;;;;;;5039287;28;20045;-68
2021/12/30 07:54:05;;;;;;;21.23;7.68;;;11.40;99.90;;;;;;5041111;28;20048;-68
2021/12/30 07:56:31;;;;;;;21.40;7.55;;;11.50;99.90;;;;;;5039756;28;20087;-68
2021/12/30 07:58:58;;;;;;;18.48;7.05;;;11.50;99.90;;;;;;5040012;28;20060;-69
2021/12/30 08:01:34;;;;;;;15.88;6.43;;;11.50;99.90;;;;;;5040914;28;20038;-69
2021/12/30 08:04:00;;;;;;;;;;;11.50;99.90;;;;;;5038259;28;20046;-69
2021/12/30 08:06:28;;;;;;;15.47;6.20;;;11.50;99.90;;;;;;5041208;28;19921;-68
2021/12/30 08:08:55;;;;;;;12.40;5.55;;;11.90;99.90;;;;;;5039559;28;20055;-69
2021/12/30 08:11:22;;;;;;;11.88;4.90;;;11.50;99.90;;;;;;5040204;28;20045;-68
2021/12/30 08:13:47;;;;;;;11.57;4.63;;;11.50;99.90;;;;;;5039042;28;20053;-68
2021/12/30 08:16:14;;;;;;;11.38;4.75;;;11.50;99.90;;;;;;5039409;28;20085;-69
2021/12/30 08:18:41;;;;;;;10.93;5.03;;;11.50;99.90;;;;;;5040564;28;20056;-68
2021/12/30 08:21:07;;;;;;;9.32;4.07;;;11.50;99.90;;;;;;5038686;28;20100;-68
2021/12/30 08:23:34;;;;;;;10.45;4.78;;;11.60;99.90;;;;;;5040649;28;20111;-68
2021/12/30 08:25:59;;;;;;;10.50;3.72;;;11.60;99.90;;;;;;5037472;28;20053;-70
2021/12/30 08:28:27;;;;;;;8.50;3.92;;;11.60;99.90;;;;;;5040233;28;20585;-68
2021/12/30 08:30:53;;;;;;;7.40;3.00;;;11.60;99.90;;;;;;5039584;28;20064;-68
2021/12/30 08:33:19;;;;;;;8.18;3.97;;;11.60;99.90;;;;;;5038398;28;20034;-69
2021/12/30 08:35:45;;;;;;;8.20;3.55;;;11.60;99.90;;;;;;5040400;28;20071;-68
2021/12/30 08:38:12;;;;;;;7.80;4.00;;;11.60;99.90;;;;;;5038259;28;20569;-69
2021/12/30 08:40:38;;;;;;;7.43;3.63;;;11.60;99.90;;;;;;5040284;28;20076;-69
2021/12/30 08:43:06;;;;;;;8.27;3.75;;;11.60;99.90;;;;;;5037579;28;20050;-68
2021/12/30 08:45:33;;;;;;;7.43;3.47;;;11.60;99.90;;;;;;5040051;28;20053;-69
2021/12/30 08:47:59;;;;;;;7.60;3.33;;;11.60;99.90;;;;;;5039198;28;20084;-68
2021/12/30 08:50:25;;;;;;;7.10;3.60;;;11.60;99.90;;;;;;5033502;28;20101;-68
2021/12/30 08:52:50;;;;;;;9.35;4.20;;;11.70;99.90;;;;;;5037880;28;20123;-69
2021/12/30 08:55:17;;;;;;;8.13;3.63;;;11.70;99.90;;;;;;5019754;28;20041;-68
2021/12/30 08:57:44;;;;;;;9.25;4.20;;;11.80;99.90;;;;;;5039782;28;20037;-69
2021/12/30 09:00:19;;;;;;;9.35;3.80;;;11.80;99.90;;;;;;5035314;28;20092;-69
2021/12/30 09:02:45;;;;;;;9.13;4.57;;;11.90;99.90;;;;;;5071086;28;20053;-72
2021/12/30 09:05:12;;;;;;;9.82;5.65;;;11.90;99.90;;;;;;5036440;28;20064;-69
2021/12/30 09:07:37;;;;;;;11.95;5.78;;;11.90;99.90;;;;;;5037738;28;20042;-68
2021/12/30 09:10:08;;;;;;;12.07;6.07;;;11.90;99.90;;;;;;5053561;28;20059;-70
2021/12/30 09:12:34;;;;;;;13.52;5.88;;;12.20;99.90;;;;;;5036896;28;20056;-70
2021/12/30 09:15:00;;;;;;;13.93;6.85;;;11.90;99.90;;;;;;5037467;28;20189;-70
2021/12/30 09:17:26;;;;;;;15.27;7.40;;;12.00;99.90;;;;;;5068410;28;20080;-69
2021/12/30 09:19:52;;;;;;;14.90;7.38;;;12.00;99.90;;;;;;5019617;28;20041;-70
2021/12/30 09:22:17;;;;;;;14.20;7.65;;;12.10;99.90;;;;;;5035959;28;20060;-70
2021/12/30 09:24:43;;;;;;;12.98;7.22;;;12.10;99.90;;;;;;5036340;28;20042;-69
2021/12/30 09:27:09;;;;;;;15.48;7.93;;;12.10;99.90;;;;;;5038754;28;20053;-71
2021/12/30 09:29:35;;;;;;;17.13;7.20;;;12.10;99.90;;;;;;5037015;28;20061;-70
2021/12/30 09:32:01;;;;;;;15.40;8.50;;;12.10;99.90;;;;;;5038353;28;20109;-70
2021/12/30 09:34:26;;;;;;;15.55;8.30;;;12.10;99.90;;;;;;5036238;28;20053;-70
2021/12/30 09:36:52;;;;;;;16.63;8.48;;;12.20;99.90;;;;;;5038931;28;20050;-71
2021/12/30 09:39:18;;;;;;;15.70;8.60;;;12.20;99.90;;;;;;5037244;28;20076;-70
2021/12/30 09:41:45;;;;;;;13.40;7.75;;;12.20;99.90;;;;;;5048842;28;20053;-70
2021/12/30 09:44:14;;;;;;;16.38;8.68;;;12.20;99.90;;;;;;5036610;28;20053;-69
2021/12/30 09:46:40;;;;;;;19.67;9.88;;;12.10;99.90;;;;;;5035694;28;20053;-69
2021/12/30 09:49:08;;;;;;;20.55;9.38;;;12.20;99.90;;;;;;5038157;28;20762;-70
2021/12/30 09:51:35;;;;;;;19.73;9.15;;;12.10;99.90;;;;;;5035093;28;20077;-68
2021/12/30 09:54:01;;;;;;;19.60;9.63;;;12.10;99.90;;;;;;5035888;28;20077;-71
2021/12/30 09:56:28;;;;;;;17.30;8.88;;;12.10;99.90;;;;;;5028543;28;20054;-70
2021/12/30 09:58:54;;;;;;;19.20;9.50;;;12.10;99.90;;;;;;5067453;28;20053;-69
2021/12/30 10:01:20;;;;;;;17.08;8.25;;;12.10;99.90;;;;;;5075513;28;20052;-70
2021/12/30 10:03:46;;;;;;;17.98;8.68;;;12.10;99.90;;;;;;5033880;28;20038;-70
2021/12/30 10:06:18;;;;;;;16.70;8.20;;;12.10;99.90;;;;;;5037380;28;20060;-68
2021/12/30 10:08:58;;;;;;;15.98;7.43;;;12.10;99.90;;;;;;5035728;28;20065;-69
2021/12/30 10:11:25;;;;;;;19.42;7.85;;;12.10;99.90;;;;;;5037649;28;20050;-69
2021/12/30 10:13:56;;;;;;;14.63;7.60;;;12.10;99.90;;;;;;5037280;28;20124;-69
2021/12/30 10:16:24;;;;;;;15.40;8.20;;;12.10;99.90;;;;;;5036119;28;20128;-70
2021/12/30 10:18:56;;;;;;;14.27;6.22;;;12.10;99.90;;;;;;5038496;28;20100;-70
2021/12/30 10:21:33;;;;;;;18.52;8.70;;;12.10;99.90;;;;;;5036219;28;20101;-70
2021/12/30 10:24:02;;;;;;;14.27;7.20;;;12.10;99.90;;;;;;5038388;28;20621;-69
2021/12/30 10:26:28;;;;;;;15.75;7.50;;;12.10;99.90;;;;;;5069582;28;20061;-69
2021/12/30 10:28:59;;;;;;;18.38;7.75;;;12.10;99.90;;;;;;5037094;28;20563;-70
2021/12/30 10:31:28;;;;;;;19.45;8.85;;;12.10;99.90;;;;;;5036399;28;20073;-70
2021/12/30 10:34:04;;;;;;;16.02;7.55;;;12.10;99.90;;;;;;5036218;28;20061;-69
2021/12/30 10:36:31;;;;;;;16.73;8.77;;;12.20;99.90;;;;;;5073241;28;20053;-70
2021/12/30 10:39:24;;;;;;;17.27;8.73;;;12.10;99.90;;;;;;5072101;28;20056;-69
2021/12/30 10:41:53;;;;;;;20.13;8.32;;;12.10;99.90;;;;;;5040664;28;20060;-69
2021/12/30 10:44:20;;;;;;;18.55;8.60;;;12.10;99.90;;;;;;5042189;28;20038;-69
2021/12/30 10:46:46;;;;;;;14.05;8.35;;;12.10;99.90;;;;;;5039492;28;20053;-69
2021/12/30 10:49:25;;;;;;;15.23;6.57;;;12.10;99.90;;;;;;5039599;28;20049;-70
2021/12/30 10:51:53;;;;;;;18.42;6.85;;;12.10;99.90;;;;;;5039511;28;20522;-68
2021/12/30 10:54:26;;;;;;;15.85;6.72;;;12.10;99.90;;;;;;5041121;28;20045;-70
2021/12/30 10:57:09;;;;;;;15.70;6.85;;;12.20;99.90;;;;;;5031790;28;20053;-70
2021/12/30 10:59:40;;;;;;;14.52;6.07;;;12.20;99.90;;;;;;5037860;28;20052;-70
2021/12/30 11:02:16;;;;;;;14.35;5.93;;;12.20;99.90;;;;;;5038755;28;20084;-71
2021/12/30 11:04:58;;;;;;;12.43;6.05;;;12.10;99.90;;;;;;5033316;28;20077;-69
2021/12/30 11:07:38;;;;;;;13.57;4.93;;;12.10;99.90;;;;;;5035796;28;20093;-71
2021/12/30 11:10:05;;;;;;;12.60;5.70;;;12.10;99.90;;;;;;5031460;28;20045;-71
2021/12/30 11:12:41;;;;;;;11.25;5.30;;;12.20;99.90;;;;;;5070934;28;20124;-69
2021/12/30 11:15:20;;;;;;;;;;;12.20;99.90;;;;;;5040883;28;20057;-70
2021/12/30 11:17:46;;;;;;;13.70;5.45;;;12.20;99.90;;;;;;5072394;28;20392;-71
2021/12/30 11:20:15;;;;;;;12.02;5.60;;;12.20;99.90;;;;;;5040347;28;20054;-70
2021/12/30 11:22:41;;;;;;;18.10;6.03;;;12.20;99.90;;;;;;5040994;28;20042;-72
2021/12/30 11:25:11;;;;;;;16.83;5.80;;;12.20;99.90;;;;;;5039635;28;20101;-71
2021/12/30 11:27:37;;;;;;;17.17;6.22;;;12.20;99.90;;;;;;5073553;28;20045;-71
2021/12/30 11:30:11;;;;;;;20.70;7.43;;;12.20;99.90;;;;;;5037079;28;20042;-70
2021/12/30 11:32:38;;;;;;;18.85;6.90;;;12.20;99.90;;;;;;5041111;28;20048;-71
2021/12/30 11:35:06;;;;;;;18.35;6.72;;;12.20;99.90;;;;;;5054871;28;20128;-71
2021/12/30 11:37:33;;;;;;;17.70;7.18;;;12.30;99.90;;;;;;5039719;28;20053;-70
2021/12/30 11:40:05;;;;;;;17.30;6.00;;;12.20;99.90;;;;;;5038783;28;20045;-70
2021/12/30 11:42:38;;;;;;;25.17;7.13;;;12.20;99.90;;;;;;5038992;28;20063;-69
2021/12/30 11:45:24;;;;;;;19.30;6.05;;;12.30;99.90;;;;;;5040445;28;20076;-71
2021/12/30 11:47:51;;;;;;;14.85;5.53;;;12.20;99.90;;;;;;5038678;28;20049;-71
2021/12/30 11:50:27;;;;;;;17.27;6.35;;;12.20;99.90;;;;;;5038380;28;20140;-71
2021/12/30 11:53:11;;;;;;;15.80;5.88;;;12.30;99.90;;;;;;5039492;28;20045;-70
2021/12/30 11:56:02;;;;;;;19.00;6.05;;;12.20;99.90;;;;;;5037112;28;20057;-71
2021/12/30 11:58:48;;;;;;;18.50;6.80;;;12.20;99.90;;;;;;5035739;28;20409;-70
2021/12/30 12:01:13;;;;;;;18.77;6.60;;;12.30;99.90;;;;;;5037807;28;20072;-70
2021/12/30 12:03:44;;;;;;;17.48;7.18;;;12.30;99.90;;;;;;5036507;28;20041;-72
2021/12/30 12:06:28;;;;;;;26.10;7.50;;;12.30;99.90;;;;;;5038977;28;20037;-70
2021/12/30 12:09:20;;;;;;;19.38;5.78;;;12.30;99.90;;;;;;5018861;28;20101;-70
2021/12/30 12:12:14;;;;;;;15.45;6.40;;;12.30;99.90;;;;;;5018039;28;20054;-71
2021/12/30 12:14:44;;;;;;;14.18;5.70;;;12.30;99.90;;;;;;5020641;28;20112;-70
2021/12/30 12:17:18;;;;;;;13.32;6.03;;;12.40;99.90;;;;;;5029353;28;20057;-72
2021/12/30 12:19:50;;;;;;;20.83;6.22;;;12.30;99.90;;;;;;5039476;28;20723;-72
2021/12/30 12:22:19;;;;;;;20.13;7.72;;;12.30;99.90;;;;;;5038016;28;20407;-70
2021/12/30 12:24:50;;;;;;;25.17;7.70;;;12.30;99.90;;;;;;5038985;28;20046;-71
2021/12/30 12:27:19;;;;;;;20.27;6.85;;;12.30;99.90;;;;;;5038179;28;20057;-70
2021/12/30 12:29:49;;;;;;;15.70;6.20;;;12.30;99.90;;;;;;5035726;28;20125;-70
2021/12/30 12:32:17;;;;;;;25.05;6.55;;;12.30;99.90;;;;;;5038539;28;20045;-71
2021/12/30 12:34:53;;;;;;;19.92;7.35;;;12.30;99.90;;;;;;5069183;28;20116;-71
2021/12/30 12:37:37;;;;;;;23.33;8.07;;;12.30;99.90;;;;;;5037885;28;20075;-71
2021/12/30 12:40:12;;;;;;;18.58;5.75;;;12.30;99.90;;;;;;5039744;28;20049;-70
2021/12/30 12:42:50;;;;;;;15.90;6.37;;;12.30;99.90;;;;;;5069741;28;20050;-70
2021/12/30 12:45:48;;;;;;;17.75;5.97;;;12.40;99.90;;;;;;5038850;28;20095;-70